Terminal Aerodrome Forecast
Issued by NWS

Home | Current Version | Previous Version | Graphics & Text | Print | Product List | Glossary On
Versions: 1 2 3 4 5 6 7 8 9 10 11 12 13 14 15 16 17 18
034
FTUS43 KICT 101720
TAFHUT
TAF
KHUT 101720Z 1018/1118 25013KT P6SM SKC
     FM102100 30015G23KT P6SM SKC
     FM110000 35009KT P6SM SKC
     FM110900 36010KT P6SM SCT010=

USA.gov is the U.S. government's official web portal to all federal, state and local government web resources and services.